createdAt,value
2022-08-28T00:00:38.178Z,24.30
2022-08-28T00:03:05.751Z,24.30
2022-08-28T00:05:34.138Z,24.30
2022-08-28T00:08:02.130Z,24.30
2022-08-28T00:10:29.200Z,24.30
2022-08-28T00:12:57.482Z,24.30
2022-08-28T00:15:31.961Z,24.20
2022-08-28T00:17:59.432Z,24.20
2022-08-28T00:20:27.598Z,24.20
2022-08-28T00:22:55.598Z,24.20
2022-08-28T00:25:24.266Z,24.20
2022-08-28T00:27:52.909Z,24.20
2022-08-28T00:30:27.403Z,24.20
2022-08-28T00:32:56.848Z,24.20
2022-08-28T00:35:24.123Z,24.20
2022-08-28T00:37:51.812Z,24.20
2022-08-28T00:40:28.969Z,24.20
2022-08-28T00:43:02.496Z,24.20
2022-08-28T00:45:30.900Z,24.20
2022-08-28T00:47:57.637Z,24.20
2022-08-28T00:50:27.768Z,24.20
2022-08-28T00:52:59.839Z,24.20
2022-08-28T00:55:28.345Z,24.20
2022-08-28T00:57:59.095Z,24.20
2022-08-28T01:00:33.791Z,24.20
2022-08-28T01:03:01.351Z,24.20
2022-08-28T01:05:29.756Z,24.10
2022-08-28T01:07:58.827Z,24.10
2022-08-28T01:10:29.330Z,24.10
2022-08-28T01:12:57.585Z,24.10
2022-08-28T01:15:31.937Z,24.10
2022-08-28T01:18:08.058Z,24.10
2022-08-28T01:20:42.543Z,24.10
2022-08-28T01:23:29.054Z,24.10
2022-08-28T01:25:57.528Z,24.10
2022-08-28T01:28:24.500Z,24.10
2022-08-28T01:30:51.254Z,24.10
2022-08-28T01:33:18.430Z,24.10
2022-08-28T01:35:47.695Z,24.10
2022-08-28T01:38:19.623Z,24.10
2022-08-28T01:40:53.264Z,24.10
2022-08-28T01:43:23.584Z,24.10
2022-08-28T01:45:57.563Z,24.00
2022-08-28T01:48:26.497Z,24.00
2022-08-28T01:50:53.278Z,24.00
2022-08-28T01:53:25.133Z,24.00
2022-08-28T01:55:55.700Z,24.00
2022-08-28T01:58:23.983Z,24.00
2022-08-28T02:00:50.668Z,24.00
2022-08-28T02:03:17.392Z,24.00
2022-08-28T02:05:44.222Z,24.00
2022-08-28T02:08:10.984Z,24.00
2022-08-28T02:10:39.528Z,24.00
2022-08-28T02:13:07.709Z,24.00
2022-08-28T02:15:36.471Z,24.00
2022-08-28T02:18:03.881Z,24.00
2022-08-28T02:20:31.132Z,24.00
2022-08-28T02:22:58.518Z,24.00
2022-08-28T02:25:27.274Z,24.00
2022-08-28T02:27:54.828Z,24.00
2022-08-28T02:30:22.190Z,24.00
2022-08-28T02:32:50.057Z,23.90
2022-08-28T02:35:18.800Z,23.90
2022-08-28T02:37:47.738Z,24.00
2022-08-28T02:40:16.955Z,23.90
2022-08-28T02:42:44.575Z,23.90
2022-08-28T02:45:12.668Z,23.90
2022-08-28T02:47:40.931Z,23.90
2022-08-28T02:50:10.330Z,23.90
2022-08-28T02:52:37.656Z,23.90
2022-08-28T02:55:05.934Z,23.90
2022-08-28T02:57:32.899Z,23.90
2022-08-28T02:59:59.853Z,23.90
2022-08-28T03:02:26.720Z,23.90
2022-08-28T03:04:54.484Z,23.90
2022-08-28T03:07:22.635Z,23.90
2022-08-28T03:09:50.051Z,23.80
2022-08-28T03:12:17.147Z,23.90
2022-08-28T03:14:43.899Z,23.90
2022-08-28T03:17:10.951Z,23.80
2022-08-28T03:19:37.751Z,23.80
2022-08-28T03:22:04.639Z,23.80
2022-08-28T03:24:31.417Z,23.80
2022-08-28T03:26:58.465Z,23.80
2022-08-28T03:29:25.169Z,23.80
2022-08-28T03:31:52.719Z,23.80
2022-08-28T03:34:19.551Z,23.80
2022-08-28T03:36:46.504Z,23.80
2022-08-28T03:39:13.904Z,23.80
2022-08-28T03:41:41.148Z,23.80
2022-08-28T03:44:07.908Z,23.80
2022-08-28T03:46:35.533Z,23.80
2022-08-28T03:49:04.299Z,23.70
2022-08-28T03:51:34.183Z,23.80
2022-08-28T03:54:01.868Z,23.70
2022-08-28T03:56:30.485Z,23.70
2022-08-28T03:59:00.190Z,23.70
2022-08-28T04:01:27.226Z,23.70
2022-08-28T04:03:54.086Z,23.70
2022-08-28T04:06:20.861Z,23.70
2022-08-28T04:08:47.943Z,23.60
2022-08-28T04:11:15.060Z,23.60
2022-08-28T04:13:42.088Z,23.60
2022-08-28T04:16:12.135Z,23.60
2022-08-28T04:18:41.795Z,23.60
2022-08-28T04:21:15.035Z,23.60
2022-08-28T04:23:43.467Z,23.60
2022-08-28T04:26:11.357Z,23.60
2022-08-28T04:28:38.515Z,23.60
2022-08-28T04:31:08.031Z,23.60
2022-08-28T04:33:35.773Z,23.60
2022-08-28T04:36:05.965Z,23.60
2022-08-28T04:38:32.959Z,23.50
2022-08-28T04:40:59.765Z,23.50
2022-08-28T04:43:26.634Z,23.50
2022-08-28T04:45:53.440Z,23.50
2022-08-28T04:48:20.206Z,23.50
2022-08-28T04:50:49.232Z,23.50
2022-08-28T04:53:18.908Z,23.50
2022-08-28T04:55:53.858Z,23.50
2022-08-28T04:58:24.047Z,23.50
2022-08-28T05:00:52.954Z,23.40
2022-08-28T05:03:20.551Z,23.50
2022-08-28T05:05:53.211Z,23.50
2022-08-28T05:08:24.067Z,23.40
2022-08-28T05:10:51.054Z,23.40
2022-08-28T05:13:18.567Z,23.40
2022-08-28T05:15:50.908Z,23.50
2022-08-28T05:18:21.313Z,23.40
2022-08-28T05:20:48.677Z,23.40
2022-08-28T05:23:17.988Z,23.40
2022-08-28T05:25:48.008Z,23.40
2022-08-28T05:28:19.505Z,23.40
2022-08-28T05:30:46.918Z,23.40
2022-08-28T05:33:15.153Z,23.40
2022-08-28T05:35:45.207Z,23.30
2022-08-28T05:38:13.561Z,23.30
2022-08-28T05:40:46.287Z,23.30
2022-08-28T05:43:15.269Z,23.20
2022-08-28T05:45:42.696Z,23.20
2022-08-28T05:48:09.721Z,23.10
2022-08-28T05:50:39.682Z,23.10
2022-08-28T05:53:13.921Z,23.00
2022-08-28T05:55:40.879Z,23.00
2022-08-28T05:58:26.323Z,23.00
2022-08-28T06:00:53.205Z,22.90
2022-08-28T06:03:19.902Z,22.90
2022-08-28T06:05:46.608Z,22.90
2022-08-28T06:08:13.584Z,22.80
2022-08-28T06:10:45.912Z,22.90
2022-08-28T06:13:17.679Z,22.90
2022-08-28T06:15:47.006Z,22.90
2022-08-28T06:18:15.495Z,22.90
2022-08-28T06:20:44.887Z,22.90
2022-08-28T06:23:16.038Z,22.90
2022-08-28T06:25:51.917Z,22.90
2022-08-28T06:28:24.031Z,22.90
2022-08-28T06:31:18.623Z,23.00
2022-08-28T06:33:39.910Z,23.00
2022-08-28T06:36:07.779Z,23.00
2022-08-28T06:38:34.970Z,23.00
2022-08-28T06:41:02.488Z,23.00
2022-08-28T06:43:29.715Z,23.00
2022-08-28T06:45:57.851Z,23.00
2022-08-28T06:48:27.513Z,23.00
2022-08-28T06:50:55.866Z,23.00
2022-08-28T06:53:25.638Z,23.00
2022-08-28T06:56:18.423Z,23.00
2022-08-28T06:58:55.183Z,23.00
2022-08-28T07:01:25.566Z,23.00
2022-08-28T07:03:54.650Z,23.00
2022-08-28T07:06:23.415Z,22.90
2022-08-28T07:08:51.052Z,23.00
2022-08-28T07:11:26.077Z,22.90
2022-08-28T07:13:53.854Z,22.90
2022-08-28T07:16:23.102Z,23.00
2022-08-28T07:18:51.718Z,23.00
2022-08-28T07:21:18.506Z,22.90
2022-08-28T07:23:46.222Z,23.00
2022-08-28T07:26:16.711Z,23.00
2022-08-28T07:28:45.508Z,22.90
2022-08-28T07:31:19.051Z,22.90
2022-08-28T07:33:46.635Z,23.00
2022-08-28T07:36:29.373Z,23.00
2022-08-28T07:38:58.398Z,22.90
2022-08-28T07:41:28.441Z,22.90
2022-08-28T07:44:13.919Z,22.90
2022-08-28T07:46:41.171Z,22.90
2022-08-28T07:49:10.850Z,22.90
2022-08-28T07:51:37.748Z,22.90
2022-08-28T07:54:05.253Z,22.90
2022-08-28T07:56:32.752Z,22.90
2022-08-28T07:59:03.337Z,22.80
2022-08-28T08:01:31.476Z,22.80
2022-08-28T08:04:01.609Z,22.80
2022-08-28T08:06:34.490Z,22.70
2022-08-28T08:09:02.331Z,22.70
2022-08-28T08:11:32.246Z,22.70
2022-08-28T08:14:05.685Z,22.60
2022-08-28T08:16:39.090Z,22.60
2022-08-28T08:19:09.620Z,22.60
2022-08-28T08:21:37.149Z,22.60
2022-08-28T08:24:04.119Z,22.70
2022-08-28T08:26:30.837Z,22.70
2022-08-28T08:28:58.102Z,22.60
2022-08-28T08:31:26.778Z,22.70
2022-08-28T08:33:57.406Z,22.60
2022-08-28T08:36:26.573Z,22.60
2022-08-28T08:38:59.361Z,22.60
2022-08-28T08:41:34.689Z,22.60
2022-08-28T08:44:03.597Z,22.60
2022-08-28T08:46:46.235Z,22.60
2022-08-28T08:49:18.840Z,22.70
2022-08-28T08:52:08.107Z,22.70
2022-08-28T08:54:59.254Z,22.70
2022-08-28T08:57:27.617Z,22.70
2022-08-28T08:59:54.565Z,22.70
2022-08-28T09:02:31.206Z,22.70
2022-08-28T09:05:13.515Z,22.70
2022-08-28T09:07:53.267Z,22.70
2022-08-28T09:10:20.157Z,22.70
2022-08-28T09:12:57.236Z,22.70
2022-08-28T09:15:31.328Z,22.70
2022-08-28T09:18:10.860Z,22.70
2022-08-28T09:20:37.671Z,22.70
2022-08-28T09:23:13.095Z,22.70
2022-08-28T09:26:12.572Z,22.70
2022-08-28T09:28:41.442Z,22.70
2022-08-28T09:31:09.622Z,22.70
2022-08-28T09:33:38.699Z,22.70
2022-08-28T09:36:29.122Z,22.70
2022-08-28T09:39:04.917Z,22.70
2022-08-28T09:41:51.407Z,22.70
2022-08-28T09:44:18.136Z,22.70
2022-08-28T09:46:51.287Z,22.70
2022-08-28T09:49:25.542Z,22.70
2022-08-28T09:51:52.793Z,22.70
2022-08-28T09:54:42.707Z,22.70
2022-08-28T09:57:09.419Z,22.70
2022-08-28T09:59:36.136Z,22.70
2022-08-28T10:02:18.093Z,22.70
2022-08-28T10:05:02.589Z,22.70
2022-08-28T10:07:46.409Z,22.70
2022-08-28T10:10:19.009Z,22.70
2022-08-28T10:13:01.436Z,22.70
2022-08-28T10:15:49.886Z,22.70
2022-08-28T10:18:54.253Z,22.70
2022-08-28T10:21:34.929Z,22.70
2022-08-28T10:24:08.430Z,22.70
2022-08-28T10:26:54.199Z,22.70
2022-08-28T10:29:41.281Z,22.70
2022-08-28T10:32:21.143Z,22.80
2022-08-28T10:34:59.714Z,22.80
2022-08-28T10:37:41.559Z,22.80
2022-08-28T10:40:23.056Z,22.80
2022-08-28T10:43:11.560Z,22.80
2022-08-28T10:45:39.524Z,22.80
2022-08-28T10:48:32.027Z,22.90
2022-08-28T10:51:11.728Z,22.90
2022-08-28T10:53:52.932Z,22.90
2022-08-28T10:56:30.369Z,22.90
2022-08-28T10:58:59.274Z,22.90
2022-08-28T11:01:28.297Z,22.90
2022-08-28T11:03:57.187Z,22.90
2022-08-28T11:06:51.108Z,22.90
2022-08-28T11:09:34.302Z,23.00
2022-08-28T11:12:09.585Z,23.00
2022-08-28T11:14:48.120Z,23.00
2022-08-28T11:17:25.307Z,23.00
2022-08-28T11:20:10.657Z,23.00
2022-08-28T11:22:48.857Z,23.00
2022-08-28T11:25:32.492Z,23.00
2022-08-28T11:28:25.478Z,23.00
2022-08-28T11:31:19.153Z,23.00
2022-08-28T11:33:58.931Z,23.10
2022-08-28T11:36:28.097Z,23.00
2022-08-28T11:38:55.495Z,23.10
2022-08-28T11:41:38.544Z,23.10
2022-08-28T11:44:12.411Z,23.10
2022-08-28T11:46:48.704Z,23.10
2022-08-28T11:49:26.173Z,23.20
2022-08-28T11:52:11.851Z,23.10
2022-08-28T11:55:03.709Z,23.20
2022-08-28T12:00:55.012Z,23.20
2022-08-28T12:03:36.838Z,23.30
2022-08-28T12:06:04.323Z,23.30
2022-08-28T12:08:48.742Z,23.30
2022-08-28T12:11:40.273Z,23.30
2022-08-28T12:14:35.676Z,23.30
2022-08-28T12:17:05.810Z,23.40
2022-08-28T12:19:54.614Z,23.40
2022-08-28T12:22:26.334Z,23.40
2022-08-28T12:24:59.217Z,23.50
2022-08-28T12:27:26.881Z,23.50
2022-08-28T12:29:59.244Z,23.50
2022-08-28T12:32:28.734Z,23.50
2022-08-28T12:34:58.442Z,23.50
2022-08-28T12:37:52.767Z,23.60
2022-08-28T12:40:25.322Z,23.60
2022-08-28T12:43:01.837Z,23.70
2022-08-28T12:45:56.345Z,23.70
2022-08-28T12:48:33.693Z,23.70
2022-08-28T12:51:14.963Z,23.70
2022-08-28T12:53:49.921Z,23.80
2022-08-28T12:56:19.395Z,23.80
2022-08-28T12:58:47.658Z,23.80
2022-08-28T13:01:27.567Z,23.80
2022-08-28T13:04:04.409Z,23.90
2022-08-28T13:06:36.621Z,23.90
2022-08-28T13:09:24.613Z,24.00
2022-08-28T13:11:51.689Z,24.00
2022-08-28T13:14:43.948Z,24.00
2022-08-28T13:17:12.792Z,24.10
2022-08-28T13:19:40.047Z,24.10
2022-08-28T13:22:28.433Z,24.10
2022-08-28T13:25:00.435Z,24.20
2022-08-28T13:27:28.190Z,24.20
2022-08-28T13:30:20.857Z,24.30
2022-08-28T13:33:04.525Z,24.30
2022-08-28T13:35:36.158Z,24.30
2022-08-28T13:38:07.027Z,24.30
2022-08-28T13:40:59.350Z,24.30
2022-08-28T13:43:29.658Z,24.40
2022-08-28T13:45:56.842Z,24.40
2022-08-28T13:48:27.698Z,24.40
2022-08-28T13:51:03.112Z,24.40
2022-08-28T13:53:32.329Z,24.40
2022-08-28T13:56:00.360Z,24.40
2022-08-28T13:58:28.195Z,24.40
2022-08-28T14:00:57.351Z,24.50
2022-08-28T14:03:36.356Z,24.50
2022-08-28T14:06:11.569Z,24.50
2022-08-28T14:08:40.317Z,24.50
2022-08-28T14:11:12.738Z,24.50
2022-08-28T14:13:40.734Z,24.50
2022-08-28T14:16:16.711Z,24.50
2022-08-28T14:18:43.566Z,24.50
2022-08-28T14:21:10.289Z,24.50
2022-08-28T14:23:37.060Z,24.50
2022-08-28T14:26:05.803Z,24.50
2022-08-28T14:28:32.575Z,24.50
2022-08-28T14:30:59.306Z,24.50
2022-08-28T14:33:26.026Z,24.50
2022-08-28T14:35:52.851Z,24.50
2022-08-28T14:38:19.526Z,24.50
2022-08-28T14:40:46.334Z,24.50
2022-08-28T14:43:14.642Z,24.50
2022-08-28T14:45:46.295Z,24.50
2022-08-28T14:48:14.747Z,24.50
2022-08-28T14:50:42.367Z,24.50
2022-08-28T14:53:09.713Z,24.50
2022-08-28T14:55:41.849Z,24.50
2022-08-28T14:58:08.607Z,24.50
2022-08-28T15:00:40.195Z,24.50
2022-08-28T15:03:07.152Z,24.40
2022-08-28T15:05:34.122Z,24.40
2022-08-28T15:08:00.905Z,24.40
2022-08-28T15:10:27.635Z,24.50
2022-08-28T15:12:54.327Z,24.40
2022-08-28T15:15:22.559Z,24.40
2022-08-28T15:17:49.265Z,24.40
2022-08-28T15:20:16.081Z,24.40
2022-08-28T15:22:42.963Z,24.40
2022-08-28T15:25:09.801Z,24.40
2022-08-28T15:27:36.658Z,24.40
2022-08-28T15:30:04.518Z,24.40
2022-08-28T15:32:31.721Z,24.40
2022-08-28T15:34:58.484Z,24.40
2022-08-28T15:37:25.279Z,24.40
2022-08-28T15:40:10.830Z,24.40
2022-08-28T15:42:37.668Z,24.30
2022-08-28T15:45:04.744Z,24.30
2022-08-28T15:47:31.445Z,24.30
2022-08-28T15:49:58.286Z,24.30
2022-08-28T15:52:25.159Z,24.30
2022-08-28T15:54:52.769Z,24.30
2022-08-28T15:57:19.659Z,24.30
2022-08-28T15:59:49.451Z,24.30
2022-08-28T16:02:22.773Z,24.20
2022-08-28T16:04:50.269Z,24.20
2022-08-28T16:07:18.492Z,24.20
2022-08-28T16:09:45.431Z,24.20
2022-08-28T16:12:12.333Z,24.20
2022-08-28T16:14:39.046Z,24.20
2022-08-28T16:17:10.634Z,24.20
2022-08-28T16:19:42.163Z,24.20
2022-08-28T16:22:15.961Z,24.20
2022-08-28T16:24:43.911Z,24.20
2022-08-28T16:27:15.476Z,24.10
2022-08-28T16:29:43.590Z,24.10
2022-08-28T16:32:11.853Z,24.10
2022-08-28T16:34:39.827Z,24.10
2022-08-28T16:37:07.782Z,24.10
2022-08-28T16:39:35.334Z,24.10
2022-08-28T16:42:02.127Z,24.10
2022-08-28T16:44:28.902Z,24.10
2022-08-28T16:46:56.102Z,24.00
2022-08-28T16:49:23.727Z,24.10
2022-08-28T16:51:50.886Z,24.10
2022-08-28T16:54:18.384Z,24.00
2022-08-28T16:56:46.191Z,24.00
2022-08-28T16:59:20.392Z,24.00
2022-08-28T17:01:53.122Z,24.00
2022-08-28T17:04:21.609Z,24.10
2022-08-28T17:06:48.483Z,24.00
2022-08-28T17:09:15.235Z,24.00
2022-08-28T17:11:42.048Z,24.10
2022-08-28T17:14:11.017Z,24.10
2022-08-28T17:16:37.858Z,24.00
2022-08-28T17:19:04.687Z,24.00
2022-08-28T17:21:50.388Z,24.00
2022-08-28T17:24:17.162Z,24.00
2022-08-28T17:26:44.483Z,24.10
2022-08-28T17:29:11.567Z,24.00
2022-08-28T17:31:39.182Z,24.00
2022-08-28T17:34:10.458Z,24.00
2022-08-28T17:36:39.351Z,24.10
2022-08-28T17:39:09.298Z,24.00
2022-08-28T17:41:36.060Z,24.00
2022-08-28T17:44:03.271Z,24.10
2022-08-28T17:46:33.979Z,24.00
2022-08-28T17:49:05.357Z,24.00
2022-08-28T17:51:42.050Z,24.10
2022-08-28T17:54:10.858Z,24.00
2022-08-28T17:56:38.006Z,24.10
2022-08-28T17:59:05.045Z,24.10
2022-08-28T18:01:32.001Z,24.10
2022-08-28T18:03:58.864Z,24.10
2022-08-28T18:06:25.616Z,24.10
2022-08-28T18:08:52.387Z,24.10
2022-08-28T18:11:19.356Z,24.10
2022-08-28T18:13:46.492Z,24.10
2022-08-28T18:16:13.576Z,24.10
2022-08-28T18:18:41.466Z,24.10
2022-08-28T18:21:10.607Z,24.10
2022-08-28T18:23:37.818Z,24.10
2022-08-28T18:26:04.766Z,24.10
2022-08-28T18:28:33.493Z,24.10
2022-08-28T18:31:01.321Z,24.10
2022-08-28T18:33:29.682Z,24.10
2022-08-28T18:35:57.064Z,24.10
2022-08-28T18:38:27.810Z,24.10
2022-08-28T18:40:55.527Z,24.10
2022-08-28T18:43:22.530Z,24.10
2022-08-28T18:45:49.573Z,24.00
2022-08-28T18:48:16.556Z,24.00
2022-08-28T18:50:46.409Z,24.00
2022-08-28T18:53:14.275Z,24.00
2022-08-28T18:55:41.323Z,24.00
2022-08-28T18:58:11.114Z,24.00
2022-08-28T19:00:42.246Z,24.00
2022-08-28T19:03:09.414Z,23.90
2022-08-28T19:05:38.277Z,24.00
2022-08-28T19:08:05.855Z,23.90
2022-08-28T19:10:34.976Z,23.90
2022-08-28T19:13:02.776Z,23.90
2022-08-28T19:15:31.221Z,23.90
2022-08-28T19:18:00.313Z,23.90
2022-08-28T19:20:28.240Z,23.90
2022-08-28T19:22:56.115Z,23.90
2022-08-28T19:25:28.346Z,23.80
2022-08-28T19:27:59.262Z,23.90
2022-08-28T19:30:31.017Z,23.80
2022-08-28T19:32:57.816Z,23.80
2022-08-28T19:35:26.286Z,23.80
2022-08-28T19:37:54.086Z,23.80
2022-08-28T19:40:21.291Z,23.70
2022-08-28T19:42:49.936Z,23.70
2022-08-28T19:45:17.141Z,23.70
2022-08-28T19:47:44.093Z,23.70
2022-08-28T19:50:12.219Z,23.60
2022-08-28T19:52:39.799Z,23.60
2022-08-28T19:55:07.465Z,23.60
2022-08-28T19:57:34.574Z,23.60
2022-08-28T20:00:02.050Z,23.50
2022-08-28T20:02:29.562Z,23.50
2022-08-28T20:04:56.539Z,23.50
2022-08-28T20:07:24.812Z,23.50
2022-08-28T20:09:52.184Z,23.50
2022-08-28T20:12:19.590Z,23.50
2022-08-28T20:14:46.490Z,23.40
2022-08-28T20:17:14.087Z,23.40
2022-08-28T20:19:41.429Z,23.40
2022-08-28T20:22:08.237Z,23.40
2022-08-28T20:24:35.300Z,23.40
2022-08-28T20:27:02.077Z,23.40
2022-08-28T20:29:29.214Z,23.40
2022-08-28T20:31:56.142Z,23.30
2022-08-28T20:34:23.309Z,23.30
2022-08-28T20:36:50.028Z,23.30
2022-08-28T20:39:16.879Z,23.20
2022-08-28T20:41:44.876Z,23.20
2022-08-28T20:44:13.730Z,23.20
2022-08-28T20:46:42.126Z,23.10
2022-08-28T20:49:11.010Z,23.10
2022-08-28T20:51:53.416Z,23.10
2022-08-28T20:54:21.487Z,23.00
2022-08-28T20:56:50.953Z,23.00
2022-08-28T20:59:18.584Z,23.00
2022-08-28T21:01:45.441Z,22.90
2022-08-28T21:04:12.329Z,22.90
2022-08-28T21:06:39.097Z,22.90
2022-08-28T21:09:05.856Z,22.90
2022-08-28T21:11:32.573Z,22.80
2022-08-28T21:13:59.342Z,22.80
2022-08-28T21:16:26.106Z,22.80
2022-08-28T21:19:14.399Z,22.80
2022-08-28T21:21:41.202Z,22.80
2022-08-28T21:24:10.681Z,22.70
2022-08-28T21:26:39.360Z,22.70
2022-08-28T21:29:10.208Z,22.70
2022-08-28T21:31:37.496Z,22.70
2022-08-28T21:34:04.185Z,22.70
2022-08-28T21:36:31.555Z,22.70
2022-08-28T21:38:58.485Z,22.70
2022-08-28T21:41:25.483Z,22.70
2022-08-28T21:43:52.245Z,22.60
2022-08-28T21:46:19.241Z,22.60
2022-08-28T21:48:49.552Z,22.60
2022-08-28T21:51:18.058Z,22.60
2022-08-28T21:53:44.773Z,22.50
2022-08-28T21:56:15.148Z,22.50
2022-08-28T21:58:41.981Z,22.50
2022-08-28T22:08:40.828Z,22.50
2022-08-28T22:11:08.528Z,22.40
2022-08-28T22:13:35.582Z,22.40
2022-08-28T22:16:02.753Z,22.40
2022-08-28T22:18:32.056Z,22.30
2022-08-28T22:21:20.281Z,22.30
2022-08-28T22:26:19.272Z,22.30
2022-08-28T22:28:46.955Z,22.30
2022-08-28T22:31:13.882Z,22.20
2022-08-28T22:33:41.246Z,22.20
2022-08-28T22:36:09.901Z,22.20
2022-08-28T22:38:38.082Z,22.20
2022-08-28T22:41:06.357Z,22.10
2022-08-28T22:43:33.308Z,22.10
2022-08-28T22:46:00.251Z,22.10
2022-08-28T22:48:27.158Z,22.00
2022-08-28T22:51:14.640Z,22.00
2022-08-28T22:53:43.644Z,22.00
2022-08-28T22:56:11.857Z,22.00
2022-08-28T22:58:39.415Z,22.00
2022-08-28T23:01:11.293Z,21.90
2022-08-28T23:03:39.655Z,21.90
2022-08-28T23:06:06.850Z,21.90
2022-08-28T23:08:34.297Z,21.80
2022-08-28T23:11:01.385Z,21.80
2022-08-28T23:13:29.658Z,21.80
2022-08-28T23:15:56.472Z,21.80
2022-08-28T23:18:23.233Z,21.80
2022-08-28T23:20:50.452Z,21.70
2022-08-28T23:23:18.897Z,21.70
2022-08-28T23:28:12.980Z,21.70
2022-08-28T23:33:23.144Z,21.60
2022-08-28T23:35:51.392Z,21.50
2022-08-28T23:43:16.136Z,21.50
2022-08-28T23:45:44.634Z,21.40
2022-08-28T23:48:11.754Z,21.40
2022-08-28T23:50:41.299Z,21.40
2022-08-28T23:53:09.330Z,21.30
2022-08-28T23:55:36.813Z,21.30
2022-08-28T23:58:04.075Z,21.20
